Terminal Aerodrome Forecast
Issued by NWS

Home | Current Version | Previous Version | Text Only | Print | Product List | Glossary On
Versions: 1 2 3 4 5 6 7 8 9 10 11 12 13 14 15
000
FTPA31 PHFO 270520
TAFHOG
TAF
PHOG 270520Z 2706/2806 05010G15KT P6SM FEW030 SCT050
     FM272000 05017G28KT P6SM FEW030 SCT050
     FM280500 05010G15KT P6SM FEW030 SCT050
      AMD LTD TO VIS AND WIND 2709/2716=

USA.gov is the U.S. government's official web portal to all federal, state and local government web resources and services.